sensor_id;sensor_type;location;lat;lon;timestamp;pressure;altitude;pressure_sealevel;temperature;humidity
76611;BME280;65503;48.534;9.062;2024-03-07T00:01:01;97391.25;;;8.32;75.22
76611;BME280;65503;48.534;9.062;2024-03-07T00:03:30;97394.09;;;8.37;75.26
76611;BME280;65503;48.534;9.062;2024-03-07T00:05:56;97383.63;;;8.37;74.76
76611;BME280;65503;48.534;9.062;2024-03-07T00:08:24;97392.47;;;8.29;75.75
76611;BME280;65503;48.534;9.062;2024-03-07T00:10:51;97389.84;;;8.36;75.24
76611;BME280;65503;48.534;9.062;2024-03-07T00:13:18;97395.69;;;8.24;75.61
76611;BME280;65503;48.534;9.062;2024-03-07T00:15:45;97392.28;;;8.31;75.31
76611;BME280;65503;48.534;9.062;2024-03-07T00:18:11;97392.06;;;8.25;75.12
76611;BME280;65503;48.534;9.062;2024-03-07T00:20:38;97394.28;;;8.28;74.78
76611;BME280;65503;48.534;9.062;2024-03-07T00:23:05;97390.88;;;8.35;74.51
76611;BME280;65503;48.534;9.062;2024-03-07T00:25:32;97386.81;;;8.25;74.57
76611;BME280;65503;48.534;9.062;2024-03-07T00:27:59;97393.28;;;8.16;74.76
76611;BME280;65503;48.534;9.062;2024-03-07T00:30:29;97401.75;;;8.12;75.35
76611;BME280;65503;48.534;9.062;2024-03-07T00:32:57;97395.69;;;8.18;74.42
76611;BME280;65503;48.534;9.062;2024-03-07T00:35:24;97400.94;;;8.24;74.68
76611;BME280;65503;48.534;9.062;2024-03-07T00:37:51;97398.13;;;8.19;74.68
76611;BME280;65503;48.534;9.062;2024-03-07T00:40:18;97391.69;;;7.89;74.81
76611;BME280;65503;48.534;9.062;2024-03-07T00:42:44;97392.47;;;7.83;75.74
76611;BME280;65503;48.534;9.062;2024-03-07T00:45:11;97391.66;;;7.76;75.85
76611;BME280;65503;48.534;9.062;2024-03-07T00:47:38;97392.06;;;7.99;74.65
76611;BME280;65503;48.534;9.062;2024-03-07T00:50:05;97388.44;;;8.00;74.47
76611;BME280;65503;48.534;9.062;2024-03-07T00:52:32;97393.69;;;7.61;73.94
76611;BME280;65503;48.534;9.062;2024-03-07T00:54:59;97390.78;;;7.16;74.98
76611;BME280;65503;48.534;9.062;2024-03-07T00:57:25;97387.59;;;7.40;74.77
76611;BME280;65503;48.534;9.062;2024-03-07T00:59:52;97381.56;;;7.46;74.20
76611;BME280;65503;48.534;9.062;2024-03-07T01:02:18;97386.97;;;7.32;72.46
76611;BME280;65503;48.534;9.062;2024-03-07T01:04:45;97388.00;;;7.37;73.29
76611;BME280;65503;48.534;9.062;2024-03-07T01:07:12;97383.59;;;7.44;73.67
76611;BME280;65503;48.534;9.062;2024-03-07T01:09:39;97386.56;;;7.35;73.55
76611;BME280;65503;48.534;9.062;2024-03-07T01:12:06;97388.41;;;7.41;73.49
76611;BME280;65503;48.534;9.062;2024-03-07T01:14:33;97387.22;;;7.50;73.31
76611;BME280;65503;48.534;9.062;2024-03-07T01:16:59;97378.53;;;7.36;72.53
76611;BME280;65503;48.534;9.062;2024-03-07T01:19:26;97385.00;;;7.60;72.15
76611;BME280;65503;48.534;9.062;2024-03-07T01:21:52;97375.97;;;7.63;71.92
76611;BME280;65503;48.534;9.062;2024-03-07T01:24:19;97372.34;;;7.57;72.55
76611;BME280;65503;48.534;9.062;2024-03-07T01:26:47;97372.94;;;7.66;71.58
76611;BME280;65503;48.534;9.062;2024-03-07T01:29:14;97373.13;;;7.44;72.42
76611;BME280;65503;48.534;9.062;2024-03-07T01:31:42;97375.53;;;7.59;71.84
76611;BME280;65503;48.534;9.062;2024-03-07T01:34:09;97376.56;;;7.65;71.51
76611;BME280;65503;48.534;9.062;2024-03-07T01:36:36;97380.56;;;7.34;71.25
76611;BME280;65503;48.534;9.062;2024-03-07T01:39:02;97377.13;;;7.27;71.92
76611;BME280;65503;48.534;9.062;2024-03-07T01:41:30;97382.94;;;7.29;71.87
76611;BME280;65503;48.534;9.062;2024-03-07T01:43:57;97372.63;;;7.08;71.61
76611;BME280;65503;48.534;9.062;2024-03-07T01:46:23;97372.66;;;7.21;71.42
76611;BME280;65503;48.534;9.062;2024-03-07T01:48:51;97368.25;;;7.35;70.52
76611;BME280;65503;48.534;9.062;2024-03-07T01:51:17;97365.81;;;7.20;70.91
76611;BME280;65503;48.534;9.062;2024-03-07T01:53:44;97355.31;;;7.07;70.05
76611;BME280;65503;48.534;9.062;2024-03-07T01:56:12;97362.81;;;7.23;69.26
76611;BME280;65503;48.534;9.062;2024-03-07T01:58:39;97357.34;;;7.18;70.28
76611;BME280;65503;48.534;9.062;2024-03-07T02:01:07;97361.38;;;7.14;70.32
76611;BME280;65503;48.534;9.062;2024-03-07T02:03:34;97354.38;;;6.67;70.69
76611;BME280;65503;48.534;9.062;2024-03-07T02:06:03;97345.41;;;6.83;70.64
76611;BME280;65503;48.534;9.062;2024-03-07T02:08:29;97351.66;;;6.95;69.56
76611;BME280;65503;48.534;9.062;2024-03-07T02:10:58;97351.66;;;6.95;70.27
76611;BME280;65503;48.534;9.062;2024-03-07T02:13:25;97357.22;;;6.79;70.28
76611;BME280;65503;48.534;9.062;2024-03-07T02:15:52;97342.34;;;6.79;70.83
76611;BME280;65503;48.534;9.062;2024-03-07T02:18:20;97342.38;;;6.86;71.00
76611;BME280;65503;48.534;9.062;2024-03-07T02:20:46;97347.84;;;6.43;71.58
76611;BME280;65503;48.534;9.062;2024-03-07T02:23:13;97345.88;;;6.52;71.94
76611;BME280;65503;48.534;9.062;2024-03-07T02:25:41;97335.44;;;6.58;71.99
76611;BME280;65503;48.534;9.062;2024-03-07T02:28:07;97342.50;;;6.23;71.19
76611;BME280;65503;48.534;9.062;2024-03-07T02:30:34;97333.31;;;6.34;72.46
76611;BME280;65503;48.534;9.062;2024-03-07T02:33:01;97338.53;;;6.34;71.38
76611;BME280;65503;48.534;9.062;2024-03-07T02:35:34;97341.00;;;6.42;71.64
76611;BME280;65503;48.534;9.062;2024-03-07T02:38:05;97336.56;;;6.36;71.53
76611;BME280;65503;48.534;9.062;2024-03-07T02:40:31;97331.72;;;6.40;71.68
76611;BME280;65503;48.534;9.062;2024-03-07T02:42:58;97337.31;;;6.30;70.38
76611;BME280;65503;48.534;9.062;2024-03-07T02:45:25;97332.31;;;6.01;71.19
76611;BME280;65503;48.534;9.062;2024-03-07T02:47:52;97325.47;;;6.00;71.49
76611;BME280;65503;48.534;9.062;2024-03-07T02:50:20;97334.63;;;6.17;70.65
76611;BME280;65503;48.534;9.062;2024-03-07T02:52:50;97322.19;;;6.19;70.93
76611;BME280;65503;48.534;9.062;2024-03-07T02:55:19;97329.41;;;6.17;71.29
76611;BME280;65503;48.534;9.062;2024-03-07T02:57:45;97325.41;;;6.21;70.96
76611;BME280;65503;48.534;9.062;2024-03-07T03:00:12;97321.34;;;6.12;70.54
76611;BME280;65503;48.534;9.062;2024-03-07T03:02:53;97314.34;;;6.19;70.74
76611;BME280;65503;48.534;9.062;2024-03-07T03:05:20;97318.53;;;6.13;69.67
76611;BME280;65503;48.534;9.062;2024-03-07T03:07:47;97315.13;;;6.13;70.34
76611;BME280;65503;48.534;9.062;2024-03-07T03:10:24;97330.03;;;6.19;70.59
76611;BME280;65503;48.534;9.062;2024-03-07T03:12:58;97317.50;;;6.08;70.89
76611;BME280;65503;48.534;9.062;2024-03-07T03:15:26;97321.97;;;6.14;70.17
76611;BME280;65503;48.534;9.062;2024-03-07T03:17:53;97313.06;;;6.02;70.24
76611;BME280;65503;48.534;9.062;2024-03-07T03:20:20;97316.56;;;5.88;71.44
76611;BME280;65503;48.534;9.062;2024-03-07T03:23:00;97312.06;;;5.81;71.04
76611;BME280;65503;48.534;9.062;2024-03-07T03:25:45;97299.94;;;5.67;71.45
76611;BME280;65503;48.534;9.062;2024-03-07T03:28:11;97301.31;;;5.63;71.76
76611;BME280;65503;48.534;9.062;2024-03-07T03:30:39;97301.84;;;5.52;71.52
76611;BME280;65503;48.534;9.062;2024-03-07T03:33:07;97301.84;;;5.52;71.14
76611;BME280;65503;48.534;9.062;2024-03-07T03:35:34;97307.81;;;5.46;71.31
76611;BME280;65503;48.534;9.062;2024-03-07T03:38:01;97306.50;;;5.35;71.52
76611;BME280;65503;48.534;9.062;2024-03-07T03:40:27;97300.91;;;5.38;71.90
76611;BME280;65503;48.534;9.062;2024-03-07T03:42:54;97307.31;;;5.36;71.70
76611;BME280;65503;48.534;9.062;2024-03-07T03:45:21;97307.69;;;5.33;71.48
76611;BME280;65503;48.534;9.062;2024-03-07T03:47:48;97302.03;;;5.08;71.75
76611;BME280;65503;48.534;9.062;2024-03-07T03:50:15;97302.34;;;5.20;71.53
76611;BME280;65503;48.534;9.062;2024-03-07T03:52:41;97298.94;;;4.98;72.64
76611;BME280;65503;48.534;9.062;2024-03-07T03:55:08;97297.63;;;5.09;71.87
76611;BME280;65503;48.534;9.062;2024-03-07T03:57:39;97288.06;;;5.16;71.61
76611;BME280;65503;48.534;9.062;2024-03-07T04:00:07;97294.66;;;5.12;71.62
76611;BME280;65503;48.534;9.062;2024-03-07T04:02:44;97304.66;;;5.08;72.11
76611;BME280;65503;48.534;9.062;2024-03-07T04:05:11;97300.19;;;5.02;71.66
76611;BME280;65503;48.534;9.062;2024-03-07T04:07:40;97303.91;;;4.93;72.82
76611;BME280;65503;48.534;9.062;2024-03-07T04:10:09;97305.28;;;4.89;72.02
76611;BME280;65503;48.534;9.062;2024-03-07T04:12:37;97306.81;;;4.83;72.28
76611;BME280;65503;48.534;9.062;2024-03-07T04:15:05;97304.31;;;4.75;72.13
76611;BME280;65503;48.534;9.062;2024-03-07T04:17:34;97305.44;;;4.66;71.15
76611;BME280;65503;48.534;9.062;2024-03-07T04:20:02;97301.31;;;4.57;72.26
76611;BME280;65503;48.534;9.062;2024-03-07T04:22:33;97301.06;;;4.52;72.33
76611;BME280;65503;48.534;9.062;2024-03-07T04:25:01;97296.94;;;4.43;72.92
76611;BME280;65503;48.534;9.062;2024-03-07T04:27:27;97298.28;;;4.39;73.79
76611;BME280;65503;48.534;9.062;2024-03-07T04:29:55;97298.28;;;4.39;73.08
76611;BME280;65503;48.534;9.062;2024-03-07T04:32:21;97294.91;;;4.38;72.42
76611;BME280;65503;48.534;9.062;2024-03-07T04:34:48;97295.41;;;4.34;72.74
76611;BME280;65503;48.534;9.062;2024-03-07T04:37:15;97299.66;;;4.35;72.67
76611;BME280;65503;48.534;9.062;2024-03-07T04:39:41;97300.28;;;4.37;72.25
76611;BME280;65503;48.534;9.062;2024-03-07T04:42:08;97304.25;;;4.33;72.03
76611;BME280;65503;48.534;9.062;2024-03-07T04:44:36;97305.41;;;4.30;72.97
76611;BME280;65503;48.534;9.062;2024-03-07T04:47:04;97303.59;;;4.31;73.27
76611;BME280;65503;48.534;9.062;2024-03-07T04:49:32;97301.34;;;4.28;73.62
76611;BME280;65503;48.534;9.062;2024-03-07T04:52:00;97304.59;;;4.30;73.01
76611;BME280;65503;48.534;9.062;2024-03-07T04:54:29;97302.97;;;4.29;73.49
76611;BME280;65503;48.534;9.062;2024-03-07T04:56:56;97300.84;;;4.32;72.84
76611;BME280;65503;48.534;9.062;2024-03-07T04:59:23;97300.63;;;4.34;73.39
76611;BME280;65503;48.534;9.062;2024-03-07T05:01:50;97308.69;;;4.39;72.93
76611;BME280;65503;48.534;9.062;2024-03-07T05:04:17;97309.50;;;4.39;72.93
76611;BME280;65503;48.534;9.062;2024-03-07T05:06:44;97310.69;;;4.37;73.00
76611;BME280;65503;48.534;9.062;2024-03-07T05:09:14;97306.72;;;4.41;73.63
76611;BME280;65503;48.534;9.062;2024-03-07T05:11:49;97297.22;;;4.48;72.87
76611;BME280;65503;48.534;9.062;2024-03-07T05:14:19;97297.47;;;4.53;72.90
76611;BME280;65503;48.534;9.062;2024-03-07T05:16:46;97297.72;;;4.58;72.89
76611;BME280;65503;48.534;9.062;2024-03-07T05:19:28;97299.34;;;4.59;73.29
76611;BME280;65503;48.534;9.062;2024-03-07T05:21:55;97290.97;;;4.64;72.48
76611;BME280;65503;48.534;9.062;2024-03-07T05:24:22;97298.22;;;4.68;72.48
76611;BME280;65503;48.534;9.062;2024-03-07T05:26:48;97294.81;;;4.68;72.47
76611;BME280;65503;48.534;9.062;2024-03-07T05:29:15;97297.50;;;4.74;72.56
76611;BME280;65503;48.534;9.062;2024-03-07T05:31:44;97293.97;;;4.82;72.37
76611;BME280;65503;48.534;9.062;2024-03-07T05:34:17;97288.34;;;4.78;72.58
76611;BME280;65503;48.534;9.062;2024-03-07T05:36:46;97285.84;;;4.91;72.30
76611;BME280;65503;48.534;9.062;2024-03-07T05:39:16;97295.28;;;4.92;72.11
76611;BME280;65503;48.534;9.062;2024-03-07T05:41:44;97301.13;;;4.94;72.16
76611;BME280;65503;48.534;9.062;2024-03-07T05:44:13;97297.31;;;4.97;72.15
76611;BME280;65503;48.534;9.062;2024-03-07T05:46:43;97300.38;;;5.01;71.67
76611;BME280;65503;48.534;9.062;2024-03-07T05:49:14;97303.59;;;5.03;71.75
76611;BME280;65503;48.534;9.062;2024-03-07T05:51:41;97295.78;;;5.03;71.42
76611;BME280;65503;48.534;9.062;2024-03-07T05:54:12;97296.66;;;5.10;71.06
76611;BME280;65503;48.534;9.062;2024-03-07T05:56:41;97293.41;;;5.08;70.76
76611;BME280;65503;48.534;9.062;2024-03-07T05:59:08;97284.97;;;5.06;70.86
76611;BME280;65503;48.534;9.062;2024-03-07T06:01:38;97288.88;;;5.16;70.90
76611;BME280;65503;48.534;9.062;2024-03-07T06:04:06;97280.25;;;5.16;71.29
76611;BME280;65503;48.534;9.062;2024-03-07T06:06:34;97283.91;;;5.21;71.51
76611;BME280;65503;48.534;9.062;2024-03-07T06:09:04;97285.03;;;5.12;70.85
76611;BME280;65503;48.534;9.062;2024-03-07T06:11:38;97291.81;;;5.07;70.09
76611;BME280;65503;48.534;9.062;2024-03-07T06:14:06;97282.63;;;5.11;70.75
76611;BME280;65503;48.534;9.062;2024-03-07T06:16:37;97286.09;;;5.18;70.81
76611;BME280;65503;48.534;9.062;2024-03-07T06:19:05;97287.44;;;5.14;70.65
76611;BME280;65503;48.534;9.062;2024-03-07T06:21:39;97284.00;;;5.07;70.81
76611;BME280;65503;48.534;9.062;2024-03-07T06:24:08;97279.94;;;5.25;70.33
76611;BME280;65503;48.534;9.062;2024-03-07T06:26:38;97280.72;;;5.26;70.72
76611;BME280;65503;48.534;9.062;2024-03-07T06:29:12;97279.63;;;5.35;70.23
76611;BME280;65503;48.534;9.062;2024-03-07T06:31:40;97283.22;;;5.34;70.61
76611;BME280;65503;48.534;9.062;2024-03-07T06:34:09;97283.22;;;5.34;69.19
76611;BME280;65503;48.534;9.062;2024-03-07T06:36:36;97282.75;;;5.24;69.28
76611;BME280;65503;48.534;9.062;2024-03-07T06:39:03;97281.59;;;5.33;68.94
76611;BME280;65503;48.534;9.062;2024-03-07T06:41:35;97276.25;;;5.20;69.10
76611;BME280;65503;48.534;9.062;2024-03-07T06:44:02;97282.34;;;5.27;68.84
76611;BME280;65503;48.534;9.062;2024-03-07T06:46:29;97281.88;;;5.17;68.87
76611;BME280;65503;48.534;9.062;2024-03-07T06:48:56;97287.16;;;5.23;69.24
76611;BME280;65503;48.534;9.062;2024-03-07T06:51:23;97284.28;;;5.39;68.16
76611;BME280;65503;48.534;9.062;2024-03-07T06:53:49;97283.22;;;5.34;68.89
76611;BME280;65503;48.534;9.062;2024-03-07T06:56:17;97288.44;;;5.34;68.23
76611;BME280;65503;48.534;9.062;2024-03-07T06:58:44;97290.41;;;5.32;68.83
76611;BME280;65503;48.534;9.062;2024-03-07T07:01:15;97295.75;;;5.45;67.96
76611;BME280;65503;48.534;9.062;2024-03-07T07:03:42;97296.13;;;5.42;66.91
76611;BME280;65503;48.534;9.062;2024-03-07T07:06:14;97298.38;;;5.45;67.16
76611;BME280;65503;48.534;9.062;2024-03-07T07:08:40;97297.59;;;5.23;68.28
76611;BME280;65503;48.534;9.062;2024-03-07T07:11:07;97298.50;;;5.37;68.29
76611;BME280;65503;48.534;9.062;2024-03-07T07:13:34;97292.09;;;5.39;67.94
76611;BME280;65503;48.534;9.062;2024-03-07T07:16:01;97290.53;;;5.45;67.54
76611;BME280;65503;48.534;9.062;2024-03-07T07:18:28;97292.16;;;5.46;68.04
76611;BME280;65503;48.534;9.062;2024-03-07T07:20:55;97289.03;;;5.57;67.80
76611;BME280;65503;48.534;9.062;2024-03-07T07:23:23;97289.38;;;5.54;66.75
76611;BME280;65503;48.534;9.062;2024-03-07T07:25:50;97288.97;;;5.51;66.38
76611;BME280;65503;48.534;9.062;2024-03-07T07:28:16;97276.00;;;5.36;66.85
76611;BME280;65503;48.534;9.062;2024-03-07T07:30:43;97281.13;;;5.23;66.97
76611;BME280;65503;48.534;9.062;2024-03-07T07:33:12;97282.13;;;5.22;68.08
76611;BME280;65503;48.534;9.062;2024-03-07T07:35:40;97287.19;;;5.30;67.63
76611;BME280;65503;48.534;9.062;2024-03-07T07:38:07;97297.88;;;5.35;68.30
76611;BME280;65503;48.534;9.062;2024-03-07T07:40:37;97280.84;;;5.39;68.24
76611;BME280;65503;48.534;9.062;2024-03-07T07:43:04;97277.72;;;5.50;67.23
76611;BME280;65503;48.534;9.062;2024-03-07T07:45:31;97285.41;;;5.58;66.80
76611;BME280;65503;48.534;9.062;2024-03-07T07:47:59;97282.47;;;5.40;66.55
76611;BME280;65503;48.534;9.062;2024-03-07T07:50:26;97282.31;;;5.48;66.32
76611;BME280;65503;48.534;9.062;2024-03-07T07:52:57;97277.25;;;5.40;66.86
76611;BME280;65503;48.534;9.062;2024-03-07T07:55:25;97277.84;;;5.42;66.89
76611;BME280;65503;48.534;9.062;2024-03-07T07:57:57;97284.78;;;5.28;67.01
76611;BME280;65503;48.534;9.062;2024-03-07T08:00:26;97274.19;;;5.36;66.87
76611;BME280;65503;48.534;9.062;2024-03-07T08:03:00;97280.97;;;5.31;67.26
76611;BME280;65503;48.534;9.062;2024-03-07T08:05:31;97271.78;;;5.35;67.29
76611;BME280;65503;48.534;9.062;2024-03-07T08:08:01;97270.78;;;5.36;66.85
76611;BME280;65503;48.534;9.062;2024-03-07T08:10:33;97268.66;;;5.46;66.67
76611;BME280;65503;48.534;9.062;2024-03-07T08:13:01;97269.31;;;5.55;66.98
76611;BME280;65503;48.534;9.062;2024-03-07T08:15:30;97272.88;;;5.47;67.17
76611;BME280;65503;48.534;9.062;2024-03-07T08:17:57;97278.66;;;5.43;67.38
76611;BME280;65503;48.534;9.062;2024-03-07T08:20:25;97276.50;;;5.46;67.37
76611;BME280;65503;48.534;9.062;2024-03-07T08:22:53;97274.72;;;5.53;67.37
76611;BME280;65503;48.534;9.062;2024-03-07T08:25:24;97274.19;;;5.58;67.33
76611;BME280;65503;48.534;9.062;2024-03-07T08:27:53;97263.91;;;5.56;66.70
76611;BME280;65503;48.534;9.062;2024-03-07T08:30:20;97267.38;;;5.63;66.41
76611;BME280;65503;48.534;9.062;2024-03-07T08:32:49;97268.59;;;5.67;67.16
76611;BME280;65503;48.534;9.062;2024-03-07T08:35:16;97272.44;;;5.71;67.19
76611;BME280;65503;48.534;9.062;2024-03-07T08:37:47;97269.25;;;5.76;67.17
76611;BME280;65503;48.534;9.062;2024-03-07T08:40:25;97264.25;;;5.74;66.90
76611;BME280;65503;48.534;9.062;2024-03-07T08:42:55;97265.59;;;5.70;66.73
76611;BME280;65503;48.534;9.062;2024-03-07T08:45:23;97265.31;;;5.59;67.58
76611;BME280;65503;48.534;9.062;2024-03-07T08:47:51;97267.00;;;5.66;67.94
76611;BME280;65503;48.534;9.062;2024-03-07T08:50:18;97264.97;;;5.62;67.77
76611;BME280;65503;48.534;9.062;2024-03-07T08:52:46;97260.16;;;5.65;68.28
76611;BME280;65503;48.534;9.062;2024-03-07T08:55:24;97262.22;;;5.76;68.29
76611;BME280;65503;48.534;9.062;2024-03-07T08:57:52;97260.72;;;5.89;68.45
76611;BME280;65503;48.534;9.062;2024-03-07T09:00:19;97261.25;;;6.12;67.68
76611;BME280;65503;48.534;9.062;2024-03-07T09:02:53;97259.28;;;6.14;67.12
76611;BME280;65503;48.534;9.062;2024-03-07T09:05:22;97259.31;;;6.20;68.30
76611;BME280;65503;48.534;9.062;2024-03-07T09:07:51;97258.03;;;6.10;67.59
76611;BME280;65503;48.534;9.062;2024-03-07T09:10:18;97251.88;;;6.24;67.27
76611;BME280;65503;48.534;9.062;2024-03-07T09:12:45;97256.88;;;6.19;67.14
76611;BME280;65503;48.534;9.062;2024-03-07T09:15:16;97254.44;;;6.17;68.40
76611;BME280;65503;48.534;9.062;2024-03-07T09:17:44;97244.81;;;6.18;67.74
76611;BME280;65503;48.534;9.062;2024-03-07T09:20:12;97243.69;;;6.40;67.22
76611;BME280;65503;48.534;9.062;2024-03-07T09:22:46;97246.13;;;6.48;67.09
76611;BME280;65503;48.534;9.062;2024-03-07T09:25:17;97247.34;;;6.52;66.92
76611;BME280;65503;48.534;9.062;2024-03-07T09:27:45;97245.38;;;6.68;66.89
76611;BME280;65503;48.534;9.062;2024-03-07T09:30:13;97247.00;;;6.75;67.19
76611;BME280;65503;48.534;9.062;2024-03-07T09:32:43;97250.22;;;6.84;66.65
76611;BME280;65503;48.534;9.062;2024-03-07T09:35:10;97246.94;;;6.55;66.82
76611;BME280;65503;48.534;9.062;2024-03-07T09:37:39;97246.56;;;6.58;67.53
76611;BME280;65503;48.534;9.062;2024-03-07T09:40:07;97244.56;;;6.67;67.78
76611;BME280;65503;48.534;9.062;2024-03-07T09:42:41;97238.53;;;6.60;68.11
76611;BME280;65503;48.534;9.062;2024-03-07T09:45:08;97236.94;;;6.66;68.27
76611;BME280;65503;48.534;9.062;2024-03-07T09:47:40;97241.63;;;6.29;69.05
76611;BME280;65503;48.534;9.062;2024-03-07T09:50:07;97243.53;;;6.61;68.89
76611;BME280;65503;48.534;9.062;2024-03-07T09:52:34;97243.19;;;6.78;68.15
76611;BME280;65503;48.534;9.062;2024-03-07T09:55:02;97237.56;;;6.81;67.65
76611;BME280;65503;48.534;9.062;2024-03-07T09:57:32;97238.34;;;6.75;68.40
76611;BME280;65503;48.534;9.062;2024-03-07T10:00:00;97238.16;;;6.89;68.22
76611;BME280;65503;48.534;9.062;2024-03-07T10:02:32;97243.03;;;6.99;68.46
76611;BME280;65503;48.534;9.062;2024-03-07T10:05:01;97241.00;;;7.14;67.62
76611;BME280;65503;48.534;9.062;2024-03-07T10:07:31;97246.63;;;6.98;67.89
76611;BME280;65503;48.534;9.062;2024-03-07T10:09:57;97236.56;;;7.08;66.94
76611;BME280;65503;48.534;9.062;2024-03-07T10:12:26;97229.75;;;7.33;67.25
76611;BME280;65503;48.534;9.062;2024-03-07T10:14:56;97233.34;;;6.93;67.86
76611;BME280;65503;48.534;9.062;2024-03-07T10:17:24;97232.72;;;6.84;67.52
76611;BME280;65503;48.534;9.062;2024-03-07T10:19:52;97233.88;;;6.62;69.02
76611;BME280;65503;48.534;9.062;2024-03-07T10:22:20;97233.53;;;6.72;68.75
76611;BME280;65503;48.534;9.062;2024-03-07T10:24:53;97234.56;;;7.03;68.10
76611;BME280;65503;48.534;9.062;2024-03-07T10:27:27;97236.41;;;7.23;68.05
76611;BME280;65503;48.534;9.062;2024-03-07T10:29:54;97235.75;;;7.54;67.49
76611;BME280;65503;48.534;9.062;2024-03-07T10:32:22;97236.94;;;7.71;65.29
76611;BME280;65503;48.534;9.062;2024-03-07T10:34:53;97232.56;;;7.38;66.79
76611;BME280;65503;48.534;9.062;2024-03-07T10:37:21;97232.56;;;7.52;66.85
76611;BME280;65503;48.534;9.062;2024-03-07T10:39:47;97234.50;;;7.76;66.37
76611;BME280;65503;48.534;9.062;2024-03-07T10:42:17;97236.09;;;7.90;66.16
76611;BME280;65503;48.534;9.062;2024-03-07T10:44:46;97235.66;;;8.06;66.00
76611;BME280;65503;48.534;9.062;2024-03-07T10:47:19;97229.16;;;8.09;64.67
76611;BME280;65503;48.534;9.062;2024-03-07T10:49:56;97226.44;;;7.91;65.24
76611;BME280;65503;48.534;9.062;2024-03-07T10:52:36;97225.97;;;8.07;65.59
76611;BME280;65503;48.534;9.062;2024-03-07T10:55:16;97225.66;;;7.77;65.84
76611;BME280;65503;48.534;9.062;2024-03-07T10:57:51;97226.91;;;7.09;67.39
76611;BME280;65503;48.534;9.062;2024-03-07T11:00:26;97225.28;;;6.75;68.58
76611;BME280;65503;48.534;9.062;2024-03-07T11:03:10;97210.03;;;7.04;67.92
76611;BME280;65503;48.534;9.062;2024-03-07T11:05:38;97219.66;;;7.43;66.76
76611;BME280;65503;48.534;9.062;2024-03-07T11:08:07;97213.22;;;7.46;67.40
76611;BME280;65503;48.534;9.062;2024-03-07T11:10:39;97205.13;;;7.74;65.12
76611;BME280;65503;48.534;9.062;2024-03-07T11:13:08;97208.81;;;7.40;66.96
76611;BME280;65503;48.534;9.062;2024-03-07T11:15:43;97209.00;;;7.32;66.86
76611;BME280;65503;48.534;9.062;2024-03-07T11:18:10;97210.56;;;7.72;63.90
76611;BME280;65503;48.534;9.062;2024-03-07T11:20:40;97214.81;;;7.01;65.58
76611;BME280;65503;48.534;9.062;2024-03-07T11:23:25;97206.13;;;7.73;64.18
76611;BME280;65503;48.534;9.062;2024-03-07T11:26:06;97206.13;;;7.66;63.75
76611;BME280;65503;48.534;9.062;2024-03-07T11:28:35;97195.03;;;7.64;65.62
76611;BME280;65503;48.534;9.062;2024-03-07T11:31:09;97193.91;;;7.34;64.70
76611;BME280;65503;48.534;9.062;2024-03-07T11:33:39;97197.09;;;7.42;65.67
76611;BME280;65503;48.534;9.062;2024-03-07T11:36:11;97189.44;;;7.47;64.23
76611;BME280;65503;48.534;9.062;2024-03-07T11:38:48;97184.19;;;7.61;63.93
76611;BME280;65503;48.534;9.062;2024-03-07T11:41:18;97184.13;;;7.80;63.51
76611;BME280;65503;48.534;9.062;2024-03-07T11:43:46;97182.41;;;7.41;64.09
76611;BME280;65503;48.534;9.062;2024-03-07T11:46:13;97189.06;;;7.44;64.05
76611;BME280;65503;48.534;9.062;2024-03-07T11:48:43;97180.41;;;7.37;64.63
76611;BME280;65503;48.534;9.062;2024-03-07T11:51:14;97180.00;;;8.04;63.81
76611;BME280;65503;48.534;9.062;2024-03-07T11:53:43;97173.94;;;8.10;62.88
76611;BME280;65503;48.534;9.062;2024-03-07T11:56:10;97177.47;;;8.42;61.51
76611;BME280;65503;48.534;9.062;2024-03-07T11:58:44;97168.28;;;8.58;60.07
76611;BME280;65503;48.534;9.062;2024-03-07T12:01:11;97168.09;;;8.84;60.14
76611;BME280;65503;48.534;9.062;2024-03-07T12:03:40;97161.50;;;8.75;60.15
76611;BME280;65503;48.534;9.062;2024-03-07T12:06:08;97158.28;;;9.23;58.66
76611;BME280;65503;48.534;9.062;2024-03-07T12:08:39;97154.09;;;9.58;57.90
76611;BME280;65503;48.534;9.062;2024-03-07T12:11:08;97148.25;;;9.92;58.03
76611;BME280;65503;48.534;9.062;2024-03-07T12:13:39;97142.69;;;10.49;58.14
76611;BME280;65503;48.534;9.062;2024-03-07T12:16:07;97143.50;;;11.02;56.98
76611;BME280;65503;48.534;9.062;2024-03-07T12:18:35;97151.53;;;11.42;52.35
76611;BME280;65503;48.534;9.062;2024-03-07T12:21:03;97141.41;;;11.63;53.95
76611;BME280;65503;48.534;9.062;2024-03-07T12:23:33;97146.25;;;11.77;54.02
76611;BME280;65503;48.534;9.062;2024-03-07T12:26:04;97143.97;;;12.09;49.98
76611;BME280;65503;48.534;9.062;2024-03-07T12:28:32;97150.81;;;11.82;51.44
76611;BME280;65503;48.534;9.062;2024-03-07T12:31:05;97139.00;;;11.73;51.25
76611;BME280;65503;48.534;9.062;2024-03-07T12:33:42;97139.25;;;11.83;51.37
76611;BME280;65503;48.534;9.062;2024-03-07T12:36:13;97136.84;;;11.81;49.97
76611;BME280;65503;48.534;9.062;2024-03-07T12:38:40;97134.91;;;11.53;51.15
76611;BME280;65503;48.534;9.062;2024-03-07T12:41:10;97132.16;;;11.02;52.79
76611;BME280;65503;48.534;9.062;2024-03-07T12:43:41;97125.25;;;10.77;53.66
76611;BME280;65503;48.534;9.062;2024-03-07T12:46:10;97117.63;;;10.88;53.78
76611;BME280;65503;48.534;9.062;2024-03-07T12:48:42;97128.66;;;10.66;54.13
76611;BME280;65503;48.534;9.062;2024-03-07T12:51:10;97125.03;;;10.08;55.09
76611;BME280;65503;48.534;9.062;2024-03-07T12:53:44;97127.41;;;9.79;55.90
76611;BME280;65503;48.534;9.062;2024-03-07T12:56:13;97123.72;;;10.17;55.53
76611;BME280;65503;48.534;9.062;2024-03-07T12:58:44;97122.19;;;10.39;55.08
76611;BME280;65503;48.534;9.062;2024-03-07T13:01:13;97123.34;;;10.43;54.85
76611;BME280;65503;48.534;9.062;2024-03-07T13:03:39;97119.25;;;10.47;54.69
76611;BME280;65503;48.534;9.062;2024-03-07T13:06:07;97122.38;;;10.26;55.25
76611;BME280;65503;48.534;9.062;2024-03-07T13:08:34;97118.84;;;10.14;55.78
76611;BME280;65503;48.534;9.062;2024-03-07T13:11:01;97118.78;;;10.50;54.83
76611;BME280;65503;48.534;9.062;2024-03-07T13:13:28;97115.03;;;10.16;54.68
76611;BME280;65503;48.534;9.062;2024-03-07T13:15:55;97108.94;;;9.68;57.24
76611;BME280;65503;48.534;9.062;2024-03-07T13:18:22;97110.03;;;9.78;56.56